Time;durP1;ratioP1;P1;durP2;ratioP2;P2;SDS_P1;SDS_P2;PMS_P1;PMS_P2;Temp;Humidity;BMP_temperature;BMP_pressure;BME280_temperature;BME280_humidity;BME280_pressure;Samples;Min_cycle;Max_cycle;Signal;HPM_P1;HPM_P2
2022/03/12 00:00:36;;;;;;;11.43;6.25;;;;;;;;;;5097514;28;20224;-23
2022/03/12 00:03:03;;;;;;;9.65;6.07;;;;;;;;;;5112566;27;20444;-22
2022/03/12 00:05:35;;;;;;;16.42;6.65;;;;;;;;;;5087036;28;21306;-23
2022/03/12 00:08:04;;;;;;;8.77;6.40;;;;;;;;;;5089020;28;20233;-23
2022/03/12 00:10:32;;;;;;;10.63;6.20;;;;;;;;;;5091546;28;20498;-22
2022/03/12 00:12:59;;;;;;;34.10;6.97;;;;;;;;;;5089503;28;20430;-22
2022/03/12 00:15:31;;;;;;;11.13;6.78;;;;;;;;;;5092844;28;20228;-22
2022/03/12 00:17:58;;;;;;;14.82;6.10;;;;;;;;;;5089474;28;20596;-22
2022/03/12 00:20:28;;;;;;;10.77;5.25;;;;;;;;;;5091695;28;20237;-23
2022/03/12 00:22:56;;;;;;;10.40;5.70;;;;;;;;;;5091905;28;20245;-22
2022/03/12 00:25:24;;;;;;;10.90;5.25;;;;;;;;;;5092319;28;20240;-22
2022/03/12 00:27:51;;;;;;;10.07;5.55;;;;;;;;;;5092098;28;20225;-23
2022/03/12 00:30:18;;;;;;;11.55;5.20;;;;;;;;;;5091739;28;20224;-23
2022/03/12 00:32:48;;;;;;;8.70;5.35;;;;;;;;;;5090030;28;20233;-23
2022/03/12 00:35:15;;;;;;;12.25;5.40;;;;;;;;;;5089681;28;20691;-23
2022/03/12 00:37:42;;;;;;;14.27;5.93;;;;;;;;;;5092520;28;20213;-23
2022/03/12 00:40:09;;;;;;;11.07;5.43;;;;;;;;;;5091562;28;20672;-23
2022/03/12 00:42:36;;;;;;;10.48;4.80;;;;;;;;;;5091865;28;20244;-22
2022/03/12 00:45:03;;;;;;;7.13;5.07;;;;;;;;;;5092067;28;20240;-23
2022/03/12 00:47:30;;;;;;;11.85;5.85;;;;;;;;;;5072011;28;20229;-22
2022/03/12 00:49:58;;;;;;;7.75;5.50;;;;;;;;;;5071919;28;20945;-22
2022/03/12 00:52:25;;;;;;;6.95;5.20;;;;;;;;;;5082871;28;20244;-23
2022/03/12 00:54:52;;;;;;;9.88;5.43;;;;;;;;;;5073139;28;20214;-23
2022/03/12 00:57:19;;;;;;;8.57;5.10;;;;;;;;;;5072000;28;20228;-23
2022/03/12 00:59:46;;;;;;;9.95;5.82;;;;;;;;;;5071659;28;20226;-23
2022/03/12 01:02:13;;;;;;;8.52;5.15;;;;;;;;;;5106417;28;20232;-23
2022/03/12 01:04:40;;;;;;;7.82;5.35;;;;;;;;;;5092001;28;20372;-21
2022/03/12 01:07:07;;;;;;;8.63;4.93;;;;;;;;;;5091546;28;20229;-21
2022/03/12 01:09:34;;;;;;;7.35;4.93;;;;;;;;;;5092112;28;20319;-23
2022/03/12 01:12:01;;;;;;;7.93;5.10;;;;;;;;;;5092033;28;20229;-23
2022/03/12 01:14:29;;;;;;;7.63;5.20;;;;;;;;;;5086687;28;20237;-21
2022/03/12 01:16:56;;;;;;;8.90;5.30;;;;;;;;;;5097687;28;20224;-23
2022/03/12 01:19:23;;;;;;;8.32;5.50;;;;;;;;;;5088085;28;20233;-23
2022/03/12 01:21:50;;;;;;;10.35;5.18;;;;;;;;;;5082297;28;20243;-20
2022/03/12 01:24:17;;;;;;;9.63;5.95;;;;;;;;;;5089554;28;20236;-20
2022/03/12 01:26:44;;;;;;;8.48;5.85;;;;;;;;;;5090640;28;20239;-22
2022/03/12 01:29:11;;;;;;;7.82;5.22;;;;;;;;;;5090894;28;20228;-23
2022/03/12 01:31:38;;;;;;;6.95;5.03;;;;;;;;;;5105390;27;20236;-22
2022/03/12 01:34:05;;;;;;;8.65;5.22;;;;;;;;;;5103508;28;20235;-22
2022/03/12 01:36:32;;;;;;;7.40;5.82;;;;;;;;;;5079745;28;20243;-22
2022/03/12 01:38:59;;;;;;;6.53;5.10;;;;;;;;;;5081641;28;20826;-22
2022/03/12 01:41:26;;;;;;;7.40;5.28;;;;;;;;;;5095117;28;20235;-22
2022/03/12 01:43:53;;;;;;;6.78;5.18;;;;;;;;;;5095193;28;20979;-23
2022/03/12 01:46:20;;;;;;;6.72;5.07;;;;;;;;;;5105888;28;20259;-22
2022/03/12 01:48:48;;;;;;;8.98;5.18;;;;;;;;;;5115550;27;20238;-22
2022/03/12 01:51:15;;;;;;;8.88;5.50;;;;;;;;;;5096525;28;20247;-22
2022/03/12 01:53:42;;;;;;;6.57;4.72;;;;;;;;;;5094342;28;20228;-22
2022/03/12 01:56:09;;;;;;;6.85;4.97;;;;;;;;;;5094362;28;20224;-22
2022/03/12 01:58:36;;;;;;;7.32;5.18;;;;;;;;;;5094974;28;20295;-22
2022/03/12 02:01:03;;;;;;;7.93;5.00;;;;;;;;;;5094474;28;20237;-22
2022/03/12 02:03:31;;;;;;;6.00;4.95;;;;;;;;;;5094833;28;20312;-22
2022/03/12 02:05:58;;;;;;;9.77;5.53;;;;;;;;;;5094617;28;20707;-23
2022/03/12 02:08:25;;;;;;;8.48;5.30;;;;;;;;;;5095071;28;20700;-23
2022/03/12 02:10:58;;;;;;;7.97;4.80;;;;;;;;;;5094878;28;20889;-22
2022/03/12 02:13:25;;;;;;;6.60;5.05;;;;;;;;;;5085921;28;20225;-22
2022/03/12 02:15:52;;;;;;;9.68;5.60;;;;;;;;;;5088065;28;20234;-22
2022/03/12 02:18:20;;;;;;;8.23;5.45;;;;;;;;;;5115193;28;20305;-23
2022/03/12 02:20:47;;;;;;;9.55;5.25;;;;;;;;;;5114913;28;20216;-23
2022/03/12 02:23:13;;;;;;;7.72;5.18;;;;;;;;;;5104198;28;20252;-23
2022/03/12 02:25:40;;;;;;;8.50;5.80;;;;;;;;;;5094446;28;20241;-22
2022/03/12 02:28:08;;;;;;;9.05;5.07;;;;;;;;;;5094368;28;20251;-22
2022/03/12 02:30:37;;;;;;;9.07;5.00;;;;;;;;;;5098588;28;20225;-23
2022/03/12 02:33:04;;;;;;;7.15;5.10;;;;;;;;;;5108269;27;20225;-23
2022/03/12 02:35:35;;;;;;;8.68;5.43;;;;;;;;;;5084981;28;20233;-23
2022/03/12 02:38:02;;;;;;;7.95;5.50;;;;;;;;;;5074193;28;20225;-23
2022/03/12 02:40:30;;;;;;;8.60;6.03;;;;;;;;;;5074050;28;20718;-23
2022/03/12 02:42:58;;;;;;;5.75;5.05;;;;;;;;;;5072600;28;20210;-23
2022/03/12 02:45:29;;;;;;;7.05;5.50;;;;;;;;;;5087007;28;20232;-23
2022/03/12 02:47:56;;;;;;;9.25;5.53;;;;;;;;;;5114564;27;20258;-22
2022/03/12 02:50:25;;;;;;;7.43;4.97;;;;;;;;;;5111729;28;20715;-22
2022/03/12 02:52:52;;;;;;;9.38;5.00;;;;;;;;;;5073579;28;20229;-23
2022/03/12 02:55:21;;;;;;;6.63;4.85;;;;;;;;;;5075076;28;20229;-23
2022/03/12 02:57:49;;;;;;;7.03;5.32;;;;;;;;;;5094048;28;20232;-23
2022/03/12 03:00:16;;;;;;;7.47;5.03;;;;;;;;;;5095617;28;20233;-23
2022/03/12 03:02:52;;;;;;;8.30;5.20;;;;;;;;;;5114487;27;21281;-23
2022/03/12 03:05:28;;;;;;;7.95;5.32;;;;;;;;;;5112941;27;20243;-22
2022/03/12 03:07:55;;;;;;;7.90;5.15;;;;;;;;;;5092708;28;20232;-23
2022/03/12 03:10:30;;;;;;;7.60;5.07;;;;;;;;;;5093409;28;20225;-22
2022/03/12 03:12:58;;;;;;;10.23;5.10;;;;;;;;;;5093848;28;20310;-22
2022/03/12 03:15:25;;;;;;;8.25;6.00;;;;;;;;;;5097064;28;20212;-22
2022/03/12 03:17:52;;;;;;;8.27;5.40;;;;;;;;;;5106723;27;20228;-23
2022/03/12 03:20:19;;;;;;;7.40;5.68;;;;;;;;;;5093724;28;20233;-22
2022/03/12 03:22:46;;;;;;;7.55;5.10;;;;;;;;;;5093126;28;20249;-22
2022/03/12 03:25:13;;;;;;;7.88;4.90;;;;;;;;;;5094036;28;20237;-22
2022/03/12 03:27:40;;;;;;;7.28;5.40;;;;;;;;;;5092946;28;20229;-22
2022/03/12 03:30:08;;;;;;;7.03;5.00;;;;;;;;;;5093746;28;20229;-22
2022/03/12 03:32:35;;;;;;;8.30;4.97;;;;;;;;;;5114235;27;20243;-22
2022/03/12 03:35:02;;;;;;;7.85;4.75;;;;;;;;;;5113318;28;20239;-22
2022/03/12 03:37:28;;;;;;;5.95;5.18;;;;;;;;;;5113503;28;20224;-22
2022/03/12 03:39:56;;;;;;;7.03;5.55;;;;;;;;;;5104901;28;20279;-22
2022/03/12 03:42:23;;;;;;;8.05;5.32;;;;;;;;;;5074669;28;20248;-22
2022/03/12 03:44:52;;;;;;;8.38;5.40;;;;;;;;;;5071079;28;20233;-22
2022/03/12 03:47:19;;;;;;;6.32;5.00;;;;;;;;;;5109485;28;20228;-21
2022/03/12 03:49:45;;;;;;;9.45;5.32;;;;;;;;;;5112699;28;20231;-22
2022/03/12 03:52:12;;;;;;;9.13;5.22;;;;;;;;;;5075816;28;20751;-21
2022/03/12 03:54:41;;;;;;;8.30;5.43;;;;;;;;;;5072416;28;20221;-23
2022/03/12 03:57:14;;;;;;;8.07;5.68;;;;;;;;;;5072911;28;20700;-22
2022/03/12 03:59:41;;;;;;;6.97;5.38;;;;;;;;;;5072587;28;20226;-22
2022/03/12 04:02:08;;;;;;;8.15;6.20;;;;;;;;;;5088264;28;20225;-22
2022/03/12 04:04:36;;;;;;;7.57;5.25;;;;;;;;;;5092948;28;20702;-22
2022/03/12 04:07:04;;;;;;;7.93;5.47;;;;;;;;;;5092837;28;20228;-22
2022/03/12 04:09:31;;;;;;;8.40;5.45;;;;;;;;;;5093079;28;20229;-23
2022/03/12 04:11:58;;;;;;;7.47;5.35;;;;;;;;;;5092147;28;20971;-22
2022/03/12 04:14:26;;;;;;;7.10;4.75;;;;;;;;;;5092728;28;20702;-23
2022/03/12 04:16:53;;;;;;;6.95;5.45;;;;;;;;;;5092505;28;20320;-22
2022/03/12 04:19:20;;;;;;;8.27;5.60;;;;;;;;;;5092929;28;20229;-22
2022/03/12 04:21:47;;;;;;;7.82;5.38;;;;;;;;;;5080061;28;20252;-22
2022/03/12 04:24:15;;;;;;;6.50;5.15;;;;;;;;;;5089624;28;20225;-22
2022/03/12 04:26:43;;;;;;;8.90;5.55;;;;;;;;;;5092483;28;20241;-22
2022/03/12 04:29:11;;;;;;;9.45;5.57;;;;;;;;;;5092377;28;20244;-23
2022/03/12 04:31:38;;;;;;;9.77;5.93;;;;;;;;;;5105860;28;20230;-22
2022/03/12 04:34:05;;;;;;;6.57;5.07;;;;;;;;;;5103693;27;20235;-22
2022/03/12 04:36:34;;;;;;;7.07;5.28;;;;;;;;;;5092439;28;20225;-23
2022/03/12 04:39:01;;;;;;;9.95;6.15;;;;;;;;;;5092478;28;20235;-21
2022/03/12 04:41:29;;;;;;;7.38;5.50;;;;;;;;;;5084864;28;20260;-22
2022/03/12 04:43:56;;;;;;;7.65;5.88;;;;;;;;;;5071853;28;20240;-22
2022/03/12 04:46:23;;;;;;;5.95;5.07;;;;;;;;;;5101372;28;20232;-22
2022/03/12 04:48:50;;;;;;;6.18;5.28;;;;;;;;;;5112384;27;20235;-22
2022/03/12 04:51:17;;;;;;;7.68;5.47;;;;;;;;;;5112790;28;20224;-22
2022/03/12 04:53:45;;;;;;;7.65;5.40;;;;;;;;;;5112846;28;20212;-23
2022/03/12 04:56:12;;;;;;;7.25;5.38;;;;;;;;;;5102159;27;20225;-22
2022/03/12 04:58:39;;;;;;;8.07;5.53;;;;;;;;;;5092279;28;20233;-23
2022/03/12 05:01:07;;;;;;;7.25;5.28;;;;;;;;;;5096735;28;20232;-23
2022/03/12 05:03:34;;;;;;;11.00;5.38;;;;;;;;;;5092174;28;20225;-23
2022/03/12 05:06:03;;;;;;;6.93;5.03;;;;;;;;;;5091025;28;20268;-23
2022/03/12 05:08:36;;;;;;;12.13;5.80;;;;;;;;;;5091368;28;20236;-23
2022/03/12 05:11:03;;;;;;;8.00;5.53;;;;;;;;;;5091718;28;20221;-23
2022/03/12 05:13:30;;;;;;;6.38;5.25;;;;;;;;;;5091443;28;20220;-23
2022/03/12 05:15:58;;;;;;;8.20;5.80;;;;;;;;;;5091818;28;20228;-23
2022/03/12 05:18:26;;;;;;;9.68;5.82;;;;;;;;;;5091172;28;20243;-23
2022/03/12 05:20:53;;;;;;;6.90;5.30;;;;;;;;;;5089844;28;20221;-23
2022/03/12 05:23:20;;;;;;;8.10;6.10;;;;;;;;;;5090172;28;20237;-23
2022/03/12 05:25:47;;;;;;;7.93;5.70;;;;;;;;;;5074061;28;20284;-23
2022/03/12 05:28:15;;;;;;;9.77;5.68;;;;;;;;;;5072169;28;20229;-22
2022/03/12 05:30:43;;;;;;;9.43;6.10;;;;;;;;;;5097625;28;20219;-22
2022/03/12 05:33:11;;;;;;;8.77;6.10;;;;;;;;;;5111722;27;20776;-23
2022/03/12 05:35:41;;;;;;;6.35;5.35;;;;;;;;;;5111966;28;20231;-23
2022/03/12 05:38:09;;;;;;;8.75;5.78;;;;;;;;;;5111554;27;20228;-23
2022/03/12 05:40:39;;;;;;;7.82;5.47;;;;;;;;;;5088307;27;21009;-23
2022/03/12 05:43:09;;;;;;;7.97;5.43;;;;;;;;;;5071260;28;20229;-23
2022/03/12 05:45:36;;;;;;;6.68;5.38;;;;;;;;;;5095826;28;20236;-23
2022/03/12 05:48:04;;;;;;;6.82;5.32;;;;;;;;;;5112144;27;21340;-22
2022/03/12 05:50:31;;;;;;;6.43;5.25;;;;;;;;;;5107331;27;20240;-23
2022/03/12 05:52:58;;;;;;;8.73;5.72;;;;;;;;;;5091690;28;20225;-23
2022/03/12 05:55:25;;;;;;;7.03;5.85;;;;;;;;;;5091707;28;20235;-23
2022/03/12 05:57:52;;;;;;;9.40;5.90;;;;;;;;;;5091630;28;20861;-22
2022/03/12 06:00:19;;;;;;;8.95;5.65;;;;;;;;;;5093589;28;20224;-23
2022/03/12 06:02:51;;;;;;;7.43;5.28;;;;;;;;;;5089684;28;20229;-23
2022/03/12 06:05:18;;;;;;;7.22;5.55;;;;;;;;;;5091079;28;20241;-23
2022/03/12 06:07:46;;;;;;;6.55;5.18;;;;;;;;;;5091414;28;20213;-23
2022/03/12 06:10:13;;;;;;;8.07;5.80;;;;;;;;;;5091246;28;20228;-23
2022/03/12 06:12:43;;;;;;;7.57;5.45;;;;;;;;;;5090635;28;20240;-23
2022/03/12 06:15:10;;;;;;;5.90;5.03;;;;;;;;;;5088355;28;20232;-23
2022/03/12 06:17:38;;;;;;;6.32;5.20;;;;;;;;;;5085777;28;20236;-22
2022/03/12 06:20:05;;;;;;;6.53;4.95;;;;;;;;;;5086801;28;20229;-23
2022/03/12 06:22:32;;;;;;;8.13;4.95;;;;;;;;;;5081225;28;20244;-22
2022/03/12 06:24:59;;;;;;;7.80;5.22;;;;;;;;;;5085537;28;20237;-23
2022/03/12 06:27:26;;;;;;;8.52;5.10;;;;;;;;;;5084883;28;20236;-20
2022/03/12 06:29:55;;;;;;;5.75;4.90;;;;;;;;;;5084924;28;20225;-24
2022/03/12 06:32:22;;;;;;;6.05;4.85;;;;;;;;;;5092516;28;20228;-23
2022/03/12 06:34:49;;;;;;;9.40;5.38;;;;;;;;;;5091238;28;20704;-24
2022/03/12 06:37:16;;;;;;;5.45;4.75;;;;;;;;;;5092465;28;20236;-23
2022/03/12 06:39:43;;;;;;;7.38;5.18;;;;;;;;;;5085407;28;20688;-23
2022/03/12 06:42:10;;;;;;;7.65;4.93;;;;;;;;;;5090678;28;20225;-23
2022/03/12 06:44:37;;;;;;;8.25;4.88;;;;;;;;;;5090572;28;20236;-22
2022/03/12 06:47:08;;;;;;;10.75;4.95;;;;;;;;;;5093731;28;20240;-22
2022/03/12 06:49:35;;;;;;;9.02;4.70;;;;;;;;;;5094264;28;20227;-22
2022/03/12 06:52:02;;;;;;;13.48;6.15;;;;;;;;;;5093009;28;20439;-22
2022/03/12 06:54:29;;;;;;;11.50;4.85;;;;;;;;;;5093811;28;20233;-22
2022/03/12 06:56:57;;;;;;;8.90;5.03;;;;;;;;;;5093566;28;20259;-21
2022/03/12 06:59:24;;;;;;;9.00;5.00;;;;;;;;;;5093722;28;20225;-22
2022/03/12 07:01:51;;;;;;;9.25;4.65;;;;;;;;;;5093642;28;20234;-22
2022/03/12 07:04:18;;;;;;;9.07;4.80;;;;;;;;;;5073448;28;20279;-21
2022/03/12 07:06:45;;;;;;;8.52;5.10;;;;;;;;;;5073303;28;20241;-21
2022/03/12 07:09:12;;;;;;;8.98;4.93;;;;;;;;;;5090312;28;20229;-21
2022/03/12 07:11:39;;;;;;;9.90;4.90;;;;;;;;;;5093708;28;20229;-22
2022/03/12 07:14:06;;;;;;;10.30;4.78;;;;;;;;;;5093783;28;20232;-22
2022/03/12 07:16:34;;;;;;;10.35;5.68;;;;;;;;;;5105149;28;20907;-22
2022/03/12 07:19:01;;;;;;;13.13;5.50;;;;;;;;;;5105458;27;20229;-22
2022/03/12 07:21:28;;;;;;;8.55;4.80;;;;;;;;;;5092384;28;20237;-22
2022/03/12 07:23:55;;;;;;;12.50;5.07;;;;;;;;;;5093416;28;20231;-22
2022/03/12 07:26:22;;;;;;;9.27;4.53;;;;;;;;;;5093441;28;20275;-22
2022/03/12 07:28:49;;;;;;;6.32;4.28;;;;;;;;;;5093151;28;20217;-22
2022/03/12 07:31:16;;;;;;;10.25;5.22;;;;;;;;;;5095220;28;20231;-22
2022/03/12 07:33:44;;;;;;;7.82;4.85;;;;;;;;;;5091567;28;20260;-22
2022/03/12 07:36:11;;;;;;;13.75;4.80;;;;;;;;;;5090660;28;20707;-22
2022/03/12 07:38:38;;;;;;;19.00;6.00;;;;;;;;;;5087530;28;20870;-22
2022/03/12 07:41:05;;;;;;;8.55;5.82;;;;;;;;;;5089794;28;20718;-22
2022/03/12 07:43:32;;;;;;;7.18;5.25;;;;;;;;;;5081747;28;20214;-22
2022/03/12 07:46:02;;;;;;;8.32;4.63;;;;;;;;;;5089482;28;20235;-22
2022/03/12 07:48:29;;;;;;;7.15;4.65;;;;;;;;;;5113799;28;20223;-21
2022/03/12 07:51:06;;;;;;;9.27;4.68;;;;;;;;;;5104480;28;21003;-21
2022/03/12 07:53:33;;;;;;;8.30;4.78;;;;;;;;;;5092724;28;20236;-22
2022/03/12 07:56:00;;;;;;;7.20;4.68;;;;;;;;;;5093115;28;20237;-22
2022/03/12 07:58:28;;;;;;;9.85;4.65;;;;;;;;;;5093070;28;20255;-22
2022/03/12 08:00:57;;;;;;;8.63;4.32;;;;;;;;;;5100056;28;20236;-21
2022/03/12 08:03:25;;;;;;;9.98;4.53;;;;;;;;;;5082149;28;20318;-22
2022/03/12 08:05:52;;;;;;;7.65;4.75;;;;;;;;;;5072399;28;20241;-22
2022/03/12 08:08:19;;;;;;;8.90;4.72;;;;;;;;;;5073027;28;20328;-22
2022/03/12 08:13:31;;;;;;;5.82;4.22;;;;;;;;;;5075627;28;20228;-22
2022/03/12 08:15:59;;;;;;;6.25;4.13;;;;;;;;;;5092759;28;21051;-22
2022/03/12 08:18:26;;;;;;;7.40;4.60;;;;;;;;;;5092726;28;20220;-22
2022/03/12 08:20:53;;;;;;;8.65;4.40;;;;;;;;;;5091846;28;20248;-22
2022/03/12 08:23:20;;;;;;;6.53;4.70;;;;;;;;;;5092165;28;20248;-22
2022/03/12 08:25:48;;;;;;;8.07;4.32;;;;;;;;;;5091705;28;20711;-22
2022/03/12 08:28:17;;;;;;;7.05;4.72;;;;;;;;;;5092764;28;20750;-22
2022/03/12 08:30:46;;;;;;;5.40;4.20;;;;;;;;;;5091710;28;20236;-22
2022/03/12 08:33:13;;;;;;;8.02;4.43;;;;;;;;;;5092575;28;20228;-22
2022/03/12 08:35:40;;;;;;;4.53;3.75;;;;;;;;;;5091900;28;21050;-22
2022/03/12 08:38:08;;;;;;;5.57;4.65;;;;;;;;;;5092202;28;20229;-22
2022/03/12 08:40:35;;;;;;;7.35;4.45;;;;;;;;;;5089585;28;21008;-22
2022/03/12 08:43:02;;;;;;;8.65;4.57;;;;;;;;;;5080704;28;20260;-22
2022/03/12 08:45:29;;;;;;;7.88;5.00;;;;;;;;;;5075383;28;20228;-22
2022/03/12 08:47:56;;;;;;;6.05;4.18;;;;;;;;;;5091866;28;20695;-22
2022/03/12 08:50:24;;;;;;;7.35;4.68;;;;;;;;;;5092014;28;20235;-22
2022/03/12 08:52:52;;;;;;;5.80;3.90;;;;;;;;;;5092255;28;20224;-22
2022/03/12 08:55:19;;;;;;;8.50;4.38;;;;;;;;;;5091620;28;20229;-21
2022/03/12 08:57:46;;;;;;;9.02;4.05;;;;;;;;;;5079073;28;20221;-22
2022/03/12 09:00:15;;;;;;;9.02;4.30;;;;;;;;;;5072691;28;20217;-21
2022/03/12 09:02:42;;;;;;;9.93;4.28;;;;;;;;;;5091718;28;20239;-22
2022/03/12 09:05:09;;;;;;;10.73;4.90;;;;;;;;;;5092267;28;20235;-22
2022/03/12 09:07:36;;;;;;;9.20;4.93;;;;;;;;;;5091906;28;20370;-22
2022/03/12 09:10:05;;;;;;;13.00;5.20;;;;;;;;;;5091425;28;20255;-22
2022/03/12 09:12:32;;;;;;;7.18;5.00;;;;;;;;;;5092037;28;20228;-22
2022/03/12 09:14:59;;;;;;;11.10;4.85;;;;;;;;;;5092116;28;20228;-22
2022/03/12 09:17:26;;;;;;;8.10;5.07;;;;;;;;;;5105886;28;20613;-21
2022/03/12 09:19:52;;;;;;;8.70;4.63;;;;;;;;;;5084457;28;21041;-22
2022/03/12 09:22:19;;;;;;;9.93;5.10;;;;;;;;;;5070059;28;20751;-21
2022/03/12 09:24:47;;;;;;;9.68;4.55;;;;;;;;;;5071695;28;20676;-22
2022/03/12 09:27:13;;;;;;;7.10;4.60;;;;;;;;;;5071216;28;20228;-22
2022/03/12 09:29:41;;;;;;;7.07;4.57;;;;;;;;;;5071698;28;20228;-22
2022/03/12 09:32:11;;;;;;;7.30;4.50;;;;;;;;;;5072139;28;20229;-22
2022/03/12 09:34:38;;;;;;;7.30;4.40;;;;;;;;;;5071459;28;20284;-22
2022/03/12 09:37:06;;;;;;;7.10;4.45;;;;;;;;;;5074088;28;20264;-22
2022/03/12 09:39:34;;;;;;;5.13;4.22;;;;;;;;;;5090753;28;20225;-22
2022/03/12 09:42:01;;;;;;;7.70;4.53;;;;;;;;;;5089337;28;20224;-22
2022/03/12 09:44:28;;;;;;;6.28;4.30;;;;;;;;;;5091092;28;20316;-21
2022/03/12 09:46:55;;;;;;;7.30;4.15;;;;;;;;;;5106804;28;20232;-22
2022/03/12 09:49:23;;;;;;;5.63;4.07;;;;;;;;;;5111817;27;20224;-22
2022/03/12 09:51:50;;;;;;;5.38;4.38;;;;;;;;;;5111805;27;20224;-22
2022/03/12 09:54:18;;;;;;;5.85;4.03;;;;;;;;;;5095826;27;20228;-21
2022/03/12 09:56:45;;;;;;;9.43;4.57;;;;;;;;;;5094966;28;20224;-22
2022/03/12 09:59:12;;;;;;;5.88;4.10;;;;;;;;;;5076543;28;20241;-22
2022/03/12 10:01:39;;;;;;;6.03;4.20;;;;;;;;;;5101301;28;20241;-22
2022/03/12 10:04:06;;;;;;;6.28;4.00;;;;;;;;;;5105683;28;20244;-22
2022/03/12 10:06:33;;;;;;;6.28;4.15;;;;;;;;;;5094720;28;20245;-22
2022/03/12 10:09:03;;;;;;;5.85;4.15;;;;;;;;;;5094315;28;20231;-22
2022/03/12 10:11:30;;;;;;;6.28;4.10;;;;;;;;;;5094758;28;20228;-22
2022/03/12 10:13:57;;;;;;;6.15;3.85;;;;;;;;;;5094812;28;20227;-22
2022/03/12 10:16:25;;;;;;;4.85;3.90;;;;;;;;;;5097898;28;20220;-22
2022/03/12 10:18:52;;;;;;;7.68;3.75;;;;;;;;;;5097094;27;20232;-22
2022/03/12 10:21:20;;;;;;;6.55;3.97;;;;;;;;;;5081665;28;20237;-22
2022/03/12 10:23:47;;;;;;;5.30;3.92;;;;;;;;;;5074108;28;20237;-21
2022/03/12 10:26:14;;;;;;;5.35;3.80;;;;;;;;;;5082946;28;20221;-21
2022/03/12 10:28:41;;;;;;;8.05;3.88;;;;;;;;;;5094426;28;20229;-22
2022/03/12 10:31:09;;;;;;;4.55;3.33;;;;;;;;;;5103166;28;20687;-22
2022/03/12 10:33:36;;;;;;;6.30;3.80;;;;;;;;;;5113127;28;20648;-21
2022/03/12 10:36:03;;;;;;;5.07;3.50;;;;;;;;;;5114689;28;20724;-21
2022/03/12 10:38:30;;;;;;;4.57;3.28;;;;;;;;;;5093120;28;20236;-21
2022/03/12 10:40:58;;;;;;;4.13;3.22;;;;;;;;;;5094235;28;20229;-21
2022/03/12 10:43:25;;;;;;;4.78;3.47;;;;;;;;;;5079152;28;20234;-22
2022/03/12 10:45:52;;;;;;;6.57;3.45;;;;;;;;;;5087304;28;20231;-22
2022/03/12 10:48:19;;;;;;;4.88;3.63;;;;;;;;;;5103342;28;20236;-22
2022/03/12 10:50:46;;;;;;;5.10;3.97;;;;;;;;;;5094484;28;21151;-21
2022/03/12 10:53:13;;;;;;;6.60;3.50;;;;;;;;;;5093798;28;20738;-22
2022/03/12 10:55:41;;;;;;;6.32;3.50;;;;;;;;;;5094092;28;20236;-22
2022/03/12 10:58:07;;;;;;;3.97;3.40;;;;;;;;;;5082675;28;20229;-22
2022/03/12 11:00:37;;;;;;;4.53;3.58;;;;;;;;;;5093576;28;20225;-22
2022/03/12 11:03:04;;;;;;;3.92;3.35;;;;;;;;;;5085240;28;20237;-22
2022/03/12 11:05:35;;;;;;;4.00;3.38;;;;;;;;;;5072133;28;20225;-22
2022/03/12 11:08:02;;;;;;;3.70;3.17;;;;;;;;;;5073386;28;20340;-22
2022/03/12 11:10:32;;;;;;;5.15;3.30;;;;;;;;;;5084721;28;20237;-22
2022/03/12 11:12:59;;;;;;;7.65;4.10;;;;;;;;;;5093871;28;20255;-22
2022/03/12 11:15:26;;;;;;;5.15;3.58;;;;;;;;;;5096992;28;20227;-22
2022/03/12 11:17:53;;;;;;;5.70;3.97;;;;;;;;;;5114234;28;20224;-22
2022/03/12 11:20:21;;;;;;;7.88;3.80;;;;;;;;;;5111593;27;20277;-22
2022/03/12 11:22:49;;;;;;;4.85;3.15;;;;;;;;;;5092812;28;20244;-22
2022/03/12 11:25:17;;;;;;;7.13;3.53;;;;;;;;;;5093815;28;20225;-22
2022/03/12 11:27:49;;;;;;;4.68;3.40;;;;;;;;;;5086296;28;20256;-22
2022/03/12 11:30:16;;;;;;;7.07;3.38;;;;;;;;;;5077157;28;20267;-22
2022/03/12 11:32:45;;;;;;;4.20;3.33;;;;;;;;;;5097803;28;20243;-22
2022/03/12 11:35:15;;;;;;;3.95;3.13;;;;;;;;;;5093657;28;20680;-22
2022/03/12 11:37:43;;;;;;;5.90;3.15;;;;;;;;;;5093823;28;20229;-22
2022/03/12 11:40:11;;;;;;;6.45;3.25;;;;;;;;;;5093418;28;20224;-22
2022/03/12 11:42:38;;;;;;;4.75;3.03;;;;;;;;;;5091586;28;20237;-22
2022/03/12 11:45:05;;;;;;;4.75;3.10;;;;;;;;;;5083424;28;20720;-22
2022/03/12 11:47:32;;;;;;;3.53;2.65;;;;;;;;;;5109819;28;20235;-22
2022/03/12 11:50:01;;;;;;;4.18;3.13;;;;;;;;;;5092607;28;20232;-22
2022/03/12 11:52:28;;;;;;;5.78;3.75;;;;;;;;;;5093240;28;20235;-22
2022/03/12 11:54:56;;;;;;;5.97;3.17;;;;;;;;;;5092559;28;20235;-22
2022/03/12 11:57:23;;;;;;;5.32;3.22;;;;;;;;;;5092704;28;20272;-22
2022/03/12 11:59:50;;;;;;;5.53;2.80;;;;;;;;;;5093157;28;20232;-22
2022/03/12 12:02:24;;;;;;;4.90;2.70;;;;;;;;;;5093270;28;20217;-22
2022/03/12 12:04:52;;;;;;;8.80;3.13;;;;;;;;;;5092222;28;20310;-22
2022/03/12 12:07:19;;;;;;;3.53;2.67;;;;;;;;;;5092843;28;20243;-22
2022/03/12 12:09:46;;;;;;;4.55;3.00;;;;;;;;;;5092984;28;20225;-22
2022/03/12 12:12:13;;;;;;;6.10;3.40;;;;;;;;;;5092870;28;20240;-22
2022/03/12 12:14:41;;;;;;;3.67;2.75;;;;;;;;;;5092869;28;20220;-22
2022/03/12 12:17:08;;;;;;;4.60;2.75;;;;;;;;;;5086398;28;20232;-22
2022/03/12 12:19:35;;;;;;;9.75;3.35;;;;;;;;;;5091602;28;21049;-22
2022/03/12 12:22:02;;;;;;;6.43;3.10;;;;;;;;;;5092076;28;20621;-22
2022/03/12 12:24:29;;;;;;;10.10;3.00;;;;;;;;;;5091965;28;20221;-22
2022/03/12 12:26:56;;;;;;;6.15;3.30;;;;;;;;;;5091925;28;20240;-22
2022/03/12 12:29:28;;;;;;;10.32;3.30;;;;;;;;;;5093313;28;20225;-22
2022/03/12 12:31:55;;;;;;;11.20;3.00;;;;;;;;;;5104781;28;20232;-22
2022/03/12 12:34:22;;;;;;;9.50;3.15;;;;;;;;;;5082766;28;21752;-22
2022/03/12 12:36:49;;;;;;;8.68;3.75;;;;;;;;;;5086451;28;20731;-22
2022/03/12 12:39:18;;;;;;;7.53;2.92;;;;;;;;;;5073667;28;20236;-22
2022/03/12 12:41:45;;;;;;;9.45;3.35;;;;;;;;;;5072111;28;20237;-22
2022/03/12 12:44:12;;;;;;;6.72;3.38;;;;;;;;;;5072334;28;20225;-22
2022/03/12 12:46:39;;;;;;;7.15;3.25;;;;;;;;;;5098882;28;20223;-22
2022/03/12 12:49:06;;;;;;;5.55;3.05;;;;;;;;;;5103091;28;20232;-22
2022/03/12 12:51:33;;;;;;;7.63;3.00;;;;;;;;;;5088889;28;20234;-22
2022/03/12 12:54:04;;;;;;;9.30;3.08;;;;;;;;;;5089143;28;20237;-22
2022/03/12 12:56:31;;;;;;;7.97;3.05;;;;;;;;;;5084527;28;21014;-22
2022/03/12 12:58:58;;;;;;;7.82;3.10;;;;;;;;;;5085775;28;20227;-22
2022/03/12 13:01:26;;;;;;;4.75;2.70;;;;;;;;;;5088791;28;20236;-22
2022/03/12 13:03:53;;;;;;;5.95;2.90;;;;;;;;;;5089748;28;20344;-22
2022/03/12 13:06:20;;;;;;;5.38;2.80;;;;;;;;;;5088279;28;20229;-22
2022/03/12 13:08:48;;;;;;;6.53;2.60;;;;;;;;;;5070030;28;20409;-22
2022/03/12 13:11:14;;;;;;;7.55;3.25;;;;;;;;;;5078656;28;20407;-22
2022/03/12 13:13:41;;;;;;;8.40;3.28;;;;;;;;;;5090627;28;20229;-22
2022/03/12 13:16:09;;;;;;;5.72;2.92;;;;;;;;;;5090941;28;20228;-21
2022/03/12 13:18:36;;;;;;;8.60;3.10;;;;;;;;;;5081952;28;20407;-21
2022/03/12 13:21:03;;;;;;;9.85;3.40;;;;;;;;;;5081596;28;20421;-22
2022/03/12 13:23:32;;;;;;;7.10;3.28;;;;;;;;;;5087943;28;20231;-21
2022/03/12 13:25:59;;;;;;;5.63;2.78;;;;;;;;;;5090560;28;20224;-21
2022/03/12 13:28:26;;;;;;;4.13;2.38;;;;;;;;;;5091442;28;20647;-21
2022/03/12 13:30:53;;;;;;;7.35;2.58;;;;;;;;;;5094078;28;21042;-21
2022/03/12 13:33:20;;;;;;;8.40;2.67;;;;;;;;;;5091668;28;20224;-21
2022/03/12 13:35:47;;;;;;;5.60;2.78;;;;;;;;;;5094776;28;20231;-21
2022/03/12 13:38:14;;;;;;;6.60;2.70;;;;;;;;;;5094588;28;20236;-21
2022/03/12 13:40:41;;;;;;;8.75;2.50;;;;;;;;;;5094603;28;20232;-21
2022/03/12 13:43:08;;;;;;;4.30;2.63;;;;;;;;;;5091045;28;20236;-21
2022/03/12 13:45:36;;;;;;;7.93;2.20;;;;;;;;;;5095202;28;20228;-22
2022/03/12 13:48:03;;;;;;;4.55;2.10;;;;;;;;;;5094646;28;20240;-22
2022/03/12 13:50:30;;;;;;;5.43;2.42;;;;;;;;;;5091368;28;20232;-21
2022/03/12 13:52:57;;;;;;;8.77;2.63;;;;;;;;;;5089281;28;20224;-22
2022/03/12 13:55:24;;;;;;;5.57;2.50;;;;;;;;;;5087256;28;20236;-22
2022/03/12 13:57:51;;;;;;;5.97;2.15;;;;;;;;;;5094637;28;20233;-22
2022/03/12 14:00:19;;;;;;;5.53;2.22;;;;;;;;;;5096356;28;20243;-23
2022/03/12 14:02:46;;;;;;;5.00;2.33;;;;;;;;;;5089441;28;20270;-23
2022/03/12 14:05:13;;;;;;;4.30;2.17;;;;;;;;;;5090917;28;20233;-23
2022/03/12 14:07:41;;;;;;;4.63;2.30;;;;;;;;;;5091403;28;20240;-21
2022/03/12 14:10:08;;;;;;;2.75;1.70;;;;;;;;;;5094279;28;20239;-21
2022/03/12 14:12:35;;;;;;;4.10;1.92;;;;;;;;;;5093563;28;20224;-20
2022/03/12 14:15:03;;;;;;;3.83;2.00;;;;;;;;;;5091120;28;21093;-22
2022/03/12 14:17:30;;;;;;;4.15;2.13;;;;;;;;;;5092409;27;20229;-22
2022/03/12 14:19:57;;;;;;;4.22;2.13;;;;;;;;;;5091178;28;20284;-22
2022/03/12 14:22:25;;;;;;;5.25;2.20;;;;;;;;;;5085070;28;20256;-21
2022/03/12 14:24:54;;;;;;;7.07;2.45;;;;;;;;;;5080544;28;20233;-22
2022/03/12 14:27:21;;;;;;;5.60;2.03;;;;;;;;;;5086488;28;20245;-21
2022/03/12 14:29:48;;;;;;;5.35;2.53;;;;;;;;;;5089295;28;21237;-21
2022/03/12 14:32:16;;;;;;;10.85;2.63;;;;;;;;;;5088596;28;20719;-22
2022/03/12 14:34:43;;;;;;;8.68;2.50;;;;;;;;;;5085092;28;20228;-22
2022/03/12 14:37:10;;;;;;;4.68;2.50;;;;;;;;;;5088794;28;20722;-22
2022/03/12 14:39:37;;;;;;;6.70;2.58;;;;;;;;;;5092204;28;20263;-22
2022/03/12 14:42:04;;;;;;;5.88;2.97;;;;;;;;;;5090582;28;20221;-22
2022/03/12 14:44:31;;;;;;;5.60;2.45;;;;;;;;;;5090894;28;20286;-22